createdAt,value
2022-10-10T00:01:32.033Z,9.20
2022-10-10T00:03:59.609Z,9.20
2022-10-10T00:06:31.797Z,9.10
2022-10-10T00:08:59.635Z,9.30
2022-10-10T00:11:26.264Z,9.20
2022-10-10T00:13:52.936Z,9.20
2022-10-10T00:16:20.281Z,9.20
2022-10-10T00:18:47.344Z,9.20
2022-10-10T00:21:13.965Z,9.10
2022-10-10T00:23:40.809Z,9.10
2022-10-10T00:26:09.259Z,9.00
2022-10-10T00:28:38.520Z,9.10
2022-10-10T00:31:08.798Z,9.10
2022-10-10T00:33:36.713Z,9.00
2022-10-10T00:36:03.733Z,8.90
2022-10-10T00:38:30.384Z,8.90
2022-10-10T00:40:56.988Z,9.00
2022-10-10T00:43:25.652Z,9.00
2022-10-10T00:45:53.302Z,9.10
2022-10-10T00:48:42.895Z,9.00
2022-10-10T00:51:16.441Z,9.10
2022-10-10T00:53:47.196Z,9.10
2022-10-10T00:56:16.928Z,9.20
2022-10-10T00:58:47.444Z,9.00
2022-10-10T01:01:14.201Z,8.90
2022-10-10T01:03:40.833Z,9.10
2022-10-10T01:06:08.012Z,9.10
2022-10-10T01:08:34.965Z,8.90
2022-10-10T01:11:19.957Z,9.10
2022-10-10T01:14:02.578Z,9.00
2022-10-10T01:16:41.102Z,9.10
2022-10-10T01:19:36.797Z,9.00
2022-10-10T01:22:44.679Z,9.00
2022-10-10T01:25:32.008Z,8.90
2022-10-10T01:28:38.029Z,8.90
2022-10-10T01:31:08.400Z,8.90
2022-10-10T01:33:51.739Z,9.00
2022-10-10T01:36:36.998Z,9.10
2022-10-10T01:39:14.208Z,9.00
2022-10-10T01:41:50.521Z,8.90
2022-10-10T01:44:20.478Z,9.00
2022-10-10T01:46:47.290Z,9.00
2022-10-10T01:49:14.072Z,9.10
2022-10-10T01:52:11.696Z,9.00
2022-10-10T01:55:05.830Z,8.90
2022-10-10T01:57:44.276Z,8.90
2022-10-10T02:00:14.136Z,8.90
2022-10-10T02:03:05.297Z,8.70
2022-10-10T02:06:07.031Z,8.80
2022-10-10T02:08:41.445Z,8.80
2022-10-10T02:11:12.380Z,9.00
2022-10-10T02:13:55.757Z,9.00
2022-10-10T02:16:27.465Z,8.90
2022-10-10T02:18:55.590Z,8.90
2022-10-10T02:21:23.705Z,8.80
2022-10-10T02:23:52.439Z,8.80
2022-10-10T02:26:21.338Z,8.70
2022-10-10T02:28:56.863Z,8.80
2022-10-10T02:31:53.270Z,8.80
2022-10-10T02:34:24.849Z,8.80
2022-10-10T02:36:55.910Z,8.60
2022-10-10T02:39:28.025Z,8.70
2022-10-10T02:41:55.124Z,8.80
2022-10-10T02:44:23.660Z,8.70
2022-10-10T02:46:50.273Z,8.90
2022-10-10T02:49:24.567Z,8.80
2022-10-10T02:51:51.268Z,8.80
2022-10-10T02:54:18.014Z,8.60
2022-10-10T02:56:44.804Z,8.60
2022-10-10T02:59:11.529Z,8.50
2022-10-10T03:01:38.179Z,8.60
2022-10-10T03:04:04.866Z,8.60
2022-10-10T03:06:31.502Z,8.80
2022-10-10T03:08:58.209Z,8.70
2022-10-10T03:11:24.928Z,8.70
2022-10-10T03:13:51.596Z,8.70
2022-10-10T03:16:18.191Z,8.60
2022-10-10T03:18:44.936Z,8.50
2022-10-10T03:21:11.568Z,8.50
2022-10-10T03:23:38.154Z,8.50
2022-10-10T03:26:05.462Z,8.50
2022-10-10T03:28:32.165Z,8.50
2022-10-10T03:30:58.978Z,8.50
2022-10-10T03:33:25.623Z,8.60
2022-10-10T03:35:52.208Z,8.50
2022-10-10T03:38:18.825Z,8.70
2022-10-10T03:40:45.997Z,8.70
2022-10-10T03:43:14.387Z,8.60
2022-10-10T03:45:45.811Z,8.50
2022-10-10T03:48:12.356Z,8.50
2022-10-10T03:50:39.100Z,8.60
2022-10-10T03:53:06.126Z,8.50
2022-10-10T03:55:32.915Z,8.60
2022-10-10T03:57:59.486Z,8.40
2022-10-10T04:00:26.472Z,8.40
2022-10-10T04:02:53.674Z,8.50
2022-10-10T04:05:20.519Z,8.50
2022-10-10T04:07:47.145Z,8.70
2022-10-10T04:10:13.839Z,8.50
2022-10-10T04:12:40.426Z,8.60
2022-10-10T04:15:07.457Z,8.60
2022-10-10T04:17:34.015Z,8.60
2022-10-10T04:20:00.563Z,8.60
2022-10-10T04:22:27.225Z,8.50
2022-10-10T04:24:53.801Z,8.40
2022-10-10T04:27:20.469Z,8.40
2022-10-10T04:29:47.036Z,8.60
2022-10-10T04:32:13.673Z,8.50
2022-10-10T04:34:40.239Z,8.40
2022-10-10T04:37:06.871Z,8.50
2022-10-10T04:39:33.444Z,8.40
2022-10-10T04:42:00.007Z,8.40
2022-10-10T04:44:26.664Z,8.40
2022-10-10T04:46:53.360Z,8.40
2022-10-10T04:49:20.068Z,8.40
2022-10-10T04:51:46.640Z,8.40
2022-10-10T04:54:13.673Z,8.40
2022-10-10T04:56:42.412Z,8.40
2022-10-10T04:59:09.816Z,8.40
2022-10-10T05:01:36.637Z,8.40
2022-10-10T05:04:04.069Z,8.40
2022-10-10T05:06:30.911Z,8.20
2022-10-10T05:08:57.470Z,8.20
2022-10-10T05:11:24.086Z,8.10
2022-10-10T05:13:50.753Z,8.10
2022-10-10T05:16:17.793Z,8.00
2022-10-10T05:18:44.388Z,8.10
2022-10-10T05:21:11.950Z,8.00
2022-10-10T05:23:38.813Z,8.00
2022-10-10T05:26:05.413Z,8.00
2022-10-10T05:28:35.117Z,8.10
2022-10-10T05:31:02.208Z,8.10
2022-10-10T05:33:29.086Z,8.00
2022-10-10T05:36:05.708Z,7.90
2022-10-10T05:38:32.300Z,7.90
2022-10-10T05:40:58.953Z,7.90
2022-10-10T05:43:25.570Z,7.90
2022-10-10T05:45:52.665Z,7.90
2022-10-10T05:48:19.804Z,7.90
2022-10-10T05:50:49.981Z,7.90
2022-10-10T05:53:17.204Z,7.90
2022-10-10T05:55:44.507Z,7.80
2022-10-10T05:58:13.376Z,7.80
2022-10-10T06:00:45.295Z,7.80
2022-10-10T06:03:15.469Z,7.90
2022-10-10T06:05:43.233Z,8.00
2022-10-10T06:08:12.062Z,8.10
2022-10-10T06:10:42.212Z,8.00
2022-10-10T06:13:09.608Z,8.00
2022-10-10T06:15:36.280Z,8.00
2022-10-10T06:18:03.184Z,8.00
2022-10-10T06:20:29.930Z,8.00
2022-10-10T06:22:56.608Z,8.20
2022-10-10T06:25:40.161Z,8.30
2022-10-10T06:28:08.048Z,8.30
2022-10-10T06:30:35.134Z,8.30
2022-10-10T06:33:01.977Z,8.40
2022-10-10T06:35:28.829Z,8.40
2022-10-10T06:37:55.399Z,8.40
2022-10-10T06:40:21.976Z,8.40
2022-10-10T06:42:48.766Z,8.40
2022-10-10T06:45:15.596Z,8.50
2022-10-10T06:47:42.173Z,8.60
2022-10-10T06:50:09.102Z,8.80
2022-10-10T06:52:35.729Z,8.80
2022-10-10T06:55:02.287Z,8.80
2022-10-10T06:57:29.093Z,8.90
2022-10-10T06:59:55.688Z,9.00
2022-10-10T07:02:23.154Z,9.10
2022-10-10T07:04:49.907Z,9.20
2022-10-10T07:07:16.833Z,9.20
2022-10-10T07:09:43.427Z,9.30
2022-10-10T07:12:10.114Z,9.40
2022-10-10T07:14:36.691Z,9.30
2022-10-10T07:17:04.204Z,9.30
2022-10-10T07:19:30.802Z,9.30
2022-10-10T07:21:57.435Z,9.40
2022-10-10T07:24:24.229Z,9.40
2022-10-10T07:27:00.980Z,9.40
2022-10-10T07:29:31.645Z,9.50
2022-10-10T07:31:58.400Z,9.50
2022-10-10T07:34:25.443Z,9.50
2022-10-10T07:36:52.041Z,9.50
2022-10-10T07:39:25.803Z,9.50
2022-10-10T07:41:52.404Z,9.50
2022-10-10T07:44:19.948Z,9.50
2022-10-10T07:46:47.175Z,9.60
2022-10-10T07:49:13.865Z,9.60
2022-10-10T07:51:40.541Z,9.70
2022-10-10T07:54:07.311Z,9.80
2022-10-10T07:56:34.225Z,9.90
2022-10-10T07:59:00.953Z,10.00
2022-10-10T08:01:27.854Z,10.20
2022-10-10T08:03:56.048Z,10.20
2022-10-10T08:06:22.965Z,10.30
2022-10-10T08:08:51.678Z,10.50
2022-10-10T08:11:21.274Z,10.60
2022-10-10T08:13:48.537Z,10.70
2022-10-10T08:16:15.946Z,10.70
2022-10-10T08:18:42.582Z,10.80
2022-10-10T08:21:11.674Z,10.90
2022-10-10T08:23:38.366Z,11.00
2022-10-10T08:26:08.208Z,11.10
2022-10-10T08:28:35.830Z,11.30
2022-10-10T08:31:11.644Z,11.40
2022-10-10T08:33:39.403Z,11.60
2022-10-10T08:36:11.370Z,11.80
2022-10-10T08:38:38.285Z,11.90
2022-10-10T08:41:23.673Z,12.10
2022-10-10T08:44:02.093Z,12.30
2022-10-10T08:47:03.174Z,12.40
2022-10-10T08:49:47.352Z,12.60
2022-10-10T08:52:35.098Z,12.90
2022-10-10T08:55:07.521Z,12.90
2022-10-10T08:57:41.078Z,13.10
2022-10-10T09:00:12.105Z,13.10
2022-10-10T09:02:56.873Z,13.30
2022-10-10T09:05:46.609Z,13.50
2022-10-10T09:08:50.596Z,13.60
2022-10-10T09:12:04.999Z,13.90
2022-10-10T09:14:52.743Z,14.00
2022-10-10T09:17:39.601Z,14.10
2022-10-10T09:20:25.654Z,14.30
2022-10-10T09:22:59.228Z,14.20
2022-10-10T09:25:42.101Z,14.20
2022-10-10T09:28:16.515Z,14.20
2022-10-10T09:30:50.247Z,14.30
2022-10-10T09:33:30.412Z,14.20
2022-10-10T09:35:59.146Z,14.20
2022-10-10T09:38:39.309Z,14.40
2022-10-10T09:41:33.340Z,14.40
2022-10-10T09:44:04.533Z,14.70
2022-10-10T09:46:31.216Z,14.90
2022-10-10T09:48:57.994Z,15.00
2022-10-10T09:51:24.666Z,15.00
2022-10-10T09:53:51.211Z,15.10
2022-10-10T09:56:24.293Z,15.10
2022-10-10T09:58:53.278Z,15.30
2022-10-10T10:01:24.301Z,15.40
2022-10-10T10:04:27.252Z,15.50
2022-10-10T10:07:17.109Z,15.50
2022-10-10T10:09:48.963Z,15.70
2022-10-10T10:12:40.081Z,15.90
2022-10-10T10:15:21.894Z,16.00
2022-10-10T10:18:13.391Z,16.00
2022-10-10T10:20:42.261Z,16.20
2022-10-10T10:23:33.141Z,16.20
2022-10-10T10:26:06.375Z,16.40
2022-10-10T10:28:40.981Z,16.30
2022-10-10T10:31:20.373Z,16.50
2022-10-10T10:34:10.329Z,16.50
2022-10-10T10:36:48.600Z,16.50
2022-10-10T10:39:52.582Z,16.40
2022-10-10T10:42:41.256Z,16.40
2022-10-10T10:45:20.407Z,16.60
2022-10-10T10:47:53.038Z,16.70
2022-10-10T10:50:19.544Z,16.70
2022-10-10T10:52:51.357Z,16.90
2022-10-10T10:55:24.834Z,17.00
2022-10-10T11:05:19.930Z,17.20
2022-10-10T11:07:26.969Z,17.30
2022-10-10T11:09:59.717Z,17.40
2022-10-10T11:12:44.341Z,17.30
2022-10-10T11:15:23.606Z,17.30
2022-10-10T11:18:29.157Z,17.40
2022-10-10T11:21:01.050Z,17.50
2022-10-10T11:23:43.600Z,17.50
2022-10-10T11:26:31.595Z,17.40
2022-10-10T11:29:04.207Z,17.50
2022-10-10T11:31:36.956Z,17.40
2022-10-10T11:34:12.497Z,17.40
2022-10-10T11:36:43.787Z,17.40
2022-10-10T11:39:23.051Z,17.40
2022-10-10T11:41:52.720Z,17.50
2022-10-10T11:44:33.871Z,17.50
2022-10-10T11:47:16.130Z,17.40
2022-10-10T11:50:21.425Z,17.60
2022-10-10T11:53:19.228Z,17.70
2022-10-10T11:56:39.189Z,17.80
2022-10-10T11:59:20.816Z,17.80
2022-10-10T12:01:51.840Z,17.80
2022-10-10T12:04:18.746Z,17.80
2022-10-10T12:06:57.061Z,17.80
2022-10-10T12:09:40.514Z,17.60
2022-10-10T12:12:20.768Z,17.60
2022-10-10T12:14:53.953Z,17.60
2022-10-10T12:17:24.912Z,17.60
2022-10-10T12:19:52.186Z,17.60
2022-10-10T12:22:28.712Z,17.60
2022-10-10T12:46:17.337Z,18.50
2022-10-10T12:48:44.659Z,18.20
2022-10-10T12:51:21.736Z,18.10
2022-10-10T12:53:54.284Z,18.20
2022-10-10T12:56:43.052Z,18.20
2022-10-10T12:59:20.170Z,18.30
2022-10-10T13:01:53.014Z,18.30
2022-10-10T13:04:20.376Z,18.70
2022-10-10T13:06:49.096Z,18.80
2022-10-10T13:09:32.361Z,19.30
2022-10-10T13:12:06.563Z,19.60
2022-10-10T13:14:42.411Z,19.50
2022-10-10T13:17:30.497Z,19.50
2022-10-10T13:20:01.278Z,19.50
2022-10-10T13:22:31.320Z,18.90
2022-10-10T13:24:59.479Z,18.90
2022-10-10T13:27:31.041Z,18.80
2022-10-10T13:29:58.060Z,18.90
2022-10-10T13:32:28.320Z,18.70
2022-10-10T13:35:00.705Z,18.50
2022-10-10T13:37:28.930Z,18.50
2022-10-10T13:39:55.735Z,18.50
2022-10-10T13:42:33.540Z,18.70
2022-10-10T13:45:03.705Z,18.60
2022-10-10T13:47:51.596Z,18.60
2022-10-10T13:50:29.106Z,18.50
2022-10-10T13:53:26.775Z,18.50
2022-10-10T13:55:59.727Z,18.40
2022-10-10T13:58:31.778Z,18.50
2022-10-10T14:01:01.493Z,18.60
2022-10-10T14:03:30.087Z,18.50
2022-10-10T14:05:57.083Z,18.50
2022-10-10T14:08:31.991Z,18.40
2022-10-10T14:11:00.933Z,18.40
2022-10-10T14:13:29.165Z,18.30
2022-10-10T14:16:12.894Z,18.30
2022-10-10T14:18:39.565Z,18.10
2022-10-10T14:21:08.160Z,18.00
2022-10-10T14:23:35.351Z,17.90
2022-10-10T14:26:02.141Z,17.90
2022-10-10T14:28:32.603Z,17.80
2022-10-10T14:31:00.466Z,17.80
2022-10-10T14:33:27.368Z,17.80
2022-10-10T14:35:56.195Z,17.80
2022-10-10T14:38:23.266Z,17.70
2022-10-10T14:40:50.493Z,17.60
2022-10-10T14:43:18.156Z,17.60
2022-10-10T14:45:45.394Z,17.60
2022-10-10T14:48:12.811Z,17.60
2022-10-10T14:50:46.049Z,17.60
2022-10-10T14:53:13.969Z,17.60
2022-10-10T14:55:44.112Z,17.60
2022-10-10T14:58:20.083Z,17.60
2022-10-10T15:00:47.284Z,17.60
2022-10-10T15:03:14.451Z,17.50
2022-10-10T15:05:41.397Z,17.50
2022-10-10T15:08:08.213Z,17.50
2022-10-10T15:10:35.486Z,17.40
2022-10-10T15:13:03.149Z,17.40
2022-10-10T15:15:29.860Z,17.30
2022-10-10T15:18:00.128Z,17.30
2022-10-10T15:20:30.905Z,17.40
2022-10-10T15:22:59.588Z,17.30
2022-10-10T15:25:33.087Z,17.30
2022-10-10T15:28:01.084Z,17.20
2022-10-10T15:30:27.803Z,17.20
2022-10-10T15:32:54.375Z,17.10
2022-10-10T15:35:23.189Z,17.10
2022-10-10T15:37:49.816Z,17.10
2022-10-10T15:40:21.063Z,17.00
2022-10-10T15:42:49.497Z,17.00
2022-10-10T15:45:31.345Z,16.90
2022-10-10T15:48:03.609Z,16.90
2022-10-10T15:50:30.194Z,17.00
2022-10-10T15:52:56.749Z,17.00
2022-10-10T15:55:23.322Z,17.00
2022-10-10T15:57:49.955Z,16.90
2022-10-10T16:00:16.669Z,16.80
2022-10-10T16:02:43.216Z,16.70
2022-10-10T16:05:10.153Z,16.70
2022-10-10T16:07:46.651Z,16.60
2022-10-10T16:10:14.614Z,16.50
2022-10-10T16:12:41.267Z,16.20
2022-10-10T16:15:08.364Z,16.00
2022-10-10T16:17:35.138Z,15.90
2022-10-10T16:20:01.777Z,15.90
2022-10-10T16:22:28.418Z,15.70
2022-10-10T16:25:23.424Z,15.80
2022-10-10T16:27:42.707Z,15.70
2022-10-10T16:30:09.940Z,15.70
2022-10-10T16:32:41.729Z,15.60
2022-10-10T16:35:10.445Z,15.60
2022-10-10T16:37:37.172Z,15.60
2022-10-10T16:40:04.446Z,15.50
2022-10-10T16:42:31.044Z,15.40
2022-10-10T16:44:57.583Z,15.40
2022-10-10T16:47:24.169Z,15.30
2022-10-10T16:49:50.707Z,15.40
2022-10-10T16:52:17.328Z,15.20
2022-10-10T16:54:43.907Z,15.20
2022-10-10T16:57:11.957Z,15.20
2022-10-10T16:59:38.733Z,15.10
2022-10-10T17:02:05.355Z,15.10
2022-10-10T17:04:32.060Z,14.90
2022-10-10T17:06:58.647Z,14.80
2022-10-10T17:09:25.229Z,14.60
2022-10-10T17:11:51.810Z,14.50
2022-10-10T17:14:18.753Z,14.40
2022-10-10T17:17:10.438Z,14.30
2022-10-10T17:19:32.655Z,14.20
2022-10-10T17:21:59.508Z,14.00
2022-10-10T17:24:26.185Z,14.00
2022-10-10T17:26:52.780Z,14.00
2022-10-10T17:29:19.528Z,13.90
2022-10-10T17:31:46.149Z,13.90
2022-10-10T17:34:12.781Z,13.90
2022-10-10T17:36:39.388Z,13.90
2022-10-10T17:39:07.409Z,13.80
2022-10-10T17:41:34.243Z,13.80
2022-10-10T17:44:01.029Z,13.80
2022-10-10T17:46:34.712Z,13.70
2022-10-10T17:49:02.809Z,13.80
2022-10-10T17:51:29.463Z,13.70
2022-10-10T17:53:59.267Z,13.70
2022-10-10T17:56:25.915Z,13.70
2022-10-10T17:58:52.571Z,13.70
2022-10-10T18:01:19.960Z,13.70
2022-10-10T18:03:47.990Z,13.70
2022-10-10T18:06:17.161Z,13.60
2022-10-10T18:08:46.731Z,13.60
2022-10-10T18:11:15.096Z,13.60
2022-10-10T18:13:41.653Z,13.60
2022-10-10T18:16:14.461Z,13.40
2022-10-10T18:18:44.694Z,13.40
2022-10-10T18:21:14.428Z,13.50
2022-10-10T18:23:42.387Z,13.60
2022-10-10T18:26:13.216Z,13.60
2022-10-10T18:28:42.293Z,13.50
2022-10-10T18:31:13.729Z,13.50
2022-10-10T18:33:41.368Z,13.50
2022-10-10T18:36:12.662Z,13.50
2022-10-10T18:38:39.317Z,13.40
2022-10-10T18:41:15.012Z,13.40
2022-10-10T18:43:43.294Z,13.40
2022-10-10T18:46:12.405Z,13.30
2022-10-10T18:48:40.705Z,13.40
2022-10-10T18:51:14.167Z,13.40
2022-10-10T18:53:43.895Z,13.30
2022-10-10T18:56:12.323Z,13.30
2022-10-10T18:58:39.466Z,13.30
2022-10-10T19:01:09.819Z,13.20
2022-10-10T19:03:37.911Z,13.20
2022-10-10T19:06:06.692Z,13.20
2022-10-10T19:08:34.268Z,12.90
2022-10-10T19:11:01.920Z,12.90
2022-10-10T19:13:30.929Z,12.90
2022-10-10T19:16:06.977Z,12.90
2022-10-10T19:18:34.901Z,12.70
2022-10-10T19:21:03.756Z,12.80
2022-10-10T19:23:31.379Z,12.70
2022-10-10T19:26:01.857Z,12.70
2022-10-10T19:28:28.516Z,12.50
2022-10-10T19:30:55.134Z,12.40
2022-10-10T19:33:21.715Z,12.40
2022-10-10T19:35:51.404Z,12.60
2022-10-10T19:38:19.202Z,12.50
2022-10-10T19:40:47.312Z,12.40
2022-10-10T19:43:14.776Z,12.30
2022-10-10T19:45:43.251Z,12.20
2022-10-10T19:48:10.138Z,12.10
2022-10-10T19:50:41.790Z,12.10
2022-10-10T19:53:10.393Z,12.00
2022-10-10T19:55:37.011Z,11.90
2022-10-10T19:58:03.611Z,12.00
2022-10-10T20:00:30.225Z,11.90
2022-10-10T20:02:56.909Z,11.90
2022-10-10T20:05:23.486Z,11.80
2022-10-10T20:07:50.624Z,11.60
2022-10-10T20:10:17.683Z,11.30
2022-10-10T20:12:44.664Z,11.20
2022-10-10T20:15:11.617Z,11.10
2022-10-10T20:17:38.323Z,11.20
2022-10-10T20:20:06.080Z,11.20
2022-10-10T20:22:34.371Z,11.10
2022-10-10T20:25:01.855Z,10.90
2022-10-10T20:27:31.253Z,10.90
2022-10-10T20:29:58.649Z,10.80
2022-10-10T20:32:25.596Z,10.70
2022-10-10T20:34:52.294Z,10.70
2022-10-10T20:37:18.941Z,10.90
2022-10-10T20:39:45.569Z,10.80
2022-10-10T20:42:12.194Z,10.70
2022-10-10T20:44:38.772Z,10.60
2022-10-10T20:47:06.709Z,10.60
2022-10-10T20:49:33.305Z,10.60
2022-10-10T20:51:59.907Z,10.60
2022-10-10T20:54:26.573Z,10.50
2022-10-10T20:56:53.192Z,10.70
2022-10-10T20:59:21.032Z,10.70
2022-10-10T21:01:47.821Z,10.70
2022-10-10T21:04:14.836Z,10.90
2022-10-10T21:06:44.746Z,10.90
2022-10-10T21:09:13.689Z,10.90
2022-10-10T21:11:41.274Z,10.70
2022-10-10T21:14:08.225Z,10.70
2022-10-10T21:16:40.608Z,10.80
2022-10-10T21:19:09.225Z,10.70
2022-10-10T21:21:36.800Z,10.80
2022-10-10T21:24:08.470Z,10.80
2022-10-10T21:26:35.108Z,10.80
2022-10-10T21:29:02.212Z,10.80
2022-10-10T21:31:31.689Z,10.60
2022-10-10T21:34:01.362Z,10.50
2022-10-10T21:36:28.061Z,10.40
2022-10-10T21:38:56.488Z,10.40
2022-10-10T21:41:23.703Z,10.40
2022-10-10T21:43:54.550Z,10.40
2022-10-10T21:46:24.215Z,10.40
2022-10-10T21:48:52.372Z,10.20
2022-10-10T21:51:19.409Z,10.20
2022-10-10T21:53:46.379Z,10.30
2022-10-10T21:56:13.373Z,10.40
2022-10-10T21:58:42.500Z,10.50
2022-10-10T22:01:20.126Z,10.40
2022-10-10T22:03:49.126Z,10.40
2022-10-10T22:06:20.429Z,10.50
2022-10-10T22:08:48.311Z,10.50
2022-10-10T22:11:17.856Z,10.20
2022-10-10T22:13:44.606Z,10.40
2022-10-10T22:16:12.027Z,10.40
2022-10-10T22:18:39.500Z,10.40
2022-10-10T22:21:09.865Z,10.40
2022-10-10T22:23:36.863Z,10.30
2022-10-10T22:26:08.201Z,10.20
2022-10-10T22:28:35.268Z,10.30
2022-10-10T22:31:06.724Z,10.40
2022-10-10T22:33:33.379Z,10.20
2022-10-10T22:36:00.317Z,10.20
2022-10-10T22:38:27.014Z,10.30
2022-10-10T22:40:53.705Z,10.30
2022-10-10T22:43:23.806Z,10.30
2022-10-10T22:45:52.724Z,10.30
2022-10-10T22:48:19.324Z,10.20
2022-10-10T22:50:45.978Z,10.20
2022-10-10T22:53:12.596Z,10.30
2022-10-10T22:55:39.191Z,10.30
2022-10-10T22:58:05.768Z,10.30
2022-10-10T23:00:32.454Z,10.10
2022-10-10T23:02:59.151Z,10.20
2022-10-10T23:05:26.590Z,10.30
2022-10-10T23:07:53.218Z,10.00
2022-10-10T23:10:19.889Z,9.90
2022-10-10T23:12:46.826Z,10.00
2022-10-10T23:15:13.418Z,10.00
2022-10-10T23:17:40.015Z,10.00
2022-10-10T23:20:07.504Z,9.90
2022-10-10T23:22:34.105Z,9.90
2022-10-10T23:25:00.668Z,9.80
2022-10-10T23:27:27.331Z,9.80
2022-10-10T23:29:53.946Z,9.90
2022-10-10T23:32:22.817Z,9.90
2022-10-10T23:34:49.457Z,9.90
2022-10-10T23:37:16.041Z,9.90
2022-10-10T23:39:42.881Z,9.80
2022-10-10T23:42:09.485Z,9.80
2022-10-10T23:44:36.114Z,9.80
2022-10-10T23:47:02.770Z,9.80
2022-10-10T23:49:29.437Z,9.80
2022-10-10T23:51:56.076Z,9.70
2022-10-10T23:54:22.716Z,9.60
2022-10-10T23:56:49.309Z,9.60
2022-10-10T23:59:16.149Z,9.60
